sensor_id;sensor_type;location;lat;lon;timestamp;pressure;altitude;pressure_sealevel;temperature;humidity
37132;BME280;23035;50.032;21.978;2022-10-17T00:03:25;66707.03;;;14.57;99.80
37132;BME280;23035;50.032;21.978;2022-10-17T00:08:31;66687.63;;;14.39;100.00
37132;BME280;23035;50.032;21.978;2022-10-17T00:13:34;66625.25;;;13.80;100.00
37132;BME280;23035;50.032;21.978;2022-10-17T00:18:38;66693.66;;;14.47;100.00
37132;BME280;23035;50.032;21.978;2022-10-17T00:23:44;66730.16;;;14.79;99.18
37132;BME280;23035;50.032;21.978;2022-10-17T00:28:49;66706.56;;;14.59;100.00
37132;BME280;23035;50.032;21.978;2022-10-17T00:33:53;66732.75;;;14.79;99.42
37132;BME280;23035;50.032;21.978;2022-10-17T00:38:58;66794.78;;;15.43;96.03
37132;BME280;23035;50.032;21.978;2022-10-17T00:44:03;66742.06;;;14.93;97.91
37132;BME280;23035;50.032;21.978;2022-10-17T00:49:10;66673.03;;;14.23;100.00
37132;BME280;23035;50.032;21.978;2022-10-17T00:54:16;66729.63;;;14.79;100.00
37132;BME280;23035;50.032;21.978;2022-10-17T00:59:22;66673.09;;;14.25;100.00
37132;BME280;23035;50.032;21.978;2022-10-17T01:04:29;66707.16;;;14.62;100.00
37132;BME280;23035;50.032;21.978;2022-10-17T01:09:34;66642.00;;;13.98;100.00
37132;BME280;23035;50.032;21.978;2022-10-17T01:14:40;66631.06;;;13.83;100.00
37132;BME280;23035;50.032;21.978;2022-10-17T01:19:54;66681.03;;;14.28;100.00
37132;BME280;23035;50.032;21.978;2022-10-17T01:25:14;66696.25;;;14.47;100.00
37132;BME280;23035;50.032;21.978;2022-10-17T01:30:29;66629.63;;;13.87;100.00
37132;BME280;23035;50.032;21.978;2022-10-17T01:35:40;66680.56;;;14.30;100.00
37132;BME280;23035;50.032;21.978;2022-10-17T01:40:46;66670.47;;;14.25;100.00
37132;BME280;23035;50.032;21.978;2022-10-17T01:45:52;66665.66;;;14.21;100.00
37132;BME280;23035;50.032;21.978;2022-10-17T01:51:03;66744.84;;;14.98;100.00
37132;BME280;23035;50.032;21.978;2022-10-17T01:56:08;66660.19;;;14.13;100.00
37132;BME280;23035;50.032;21.978;2022-10-17T02:01:14;66647.81;;;14.01;100.00
37132;BME280;23035;50.032;21.978;2022-10-17T02:06:19;66687.34;;;14.46;100.00
37132;BME280;23035;50.032;21.978;2022-10-17T02:11:25;66681.63;;;14.31;100.00
37132;BME280;23035;50.032;21.978;2022-10-17T02:16:32;66629.06;;;13.86;100.00
37132;BME280;23035;50.032;21.978;2022-10-17T02:21:41;66635.47;;;13.90;100.00
37132;BME280;23035;50.032;21.978;2022-10-17T02:26:50;66613.56;;;13.74;100.00
37132;BME280;23035;50.032;21.978;2022-10-17T02:31:59;66657.50;;;14.11;100.00
37132;BME280;23035;50.032;21.978;2022-10-17T02:37:06;66637.69;;;13.94;100.00
37132;BME280;23035;50.032;21.978;2022-10-17T02:42:12;66629.06;;;13.86;100.00
37132;BME280;23035;50.032;21.978;2022-10-17T02:47:18;66688.25;;;14.42;100.00
37132;BME280;23035;50.032;21.978;2022-10-17T02:52:28;66717.25;;;14.67;100.00
37132;BME280;23035;50.032;21.978;2022-10-17T02:57:40;66711.84;;;14.62;100.00
37132;BME280;23035;50.032;21.978;2022-10-17T03:02:45;66683.56;;;14.43;100.00
37132;BME280;23035;50.032;21.978;2022-10-17T03:07:51;66645.75;;;14.02;100.00
37132;BME280;23035;50.032;21.978;2022-10-17T03:12:55;66666.66;;;14.19;100.00
37132;BME280;23035;50.032;21.978;2022-10-17T03:17:59;66677.34;;;14.27;100.00
37132;BME280;23035;50.032;21.978;2022-10-17T03:23:06;66588.22;;;13.47;100.00
37132;BME280;23035;50.032;21.978;2022-10-17T03:28:10;66641.81;;;13.93;100.00
37132;BME280;23035;50.032;21.978;2022-10-17T03:33:15;66645.16;;;13.99;100.00
37132;BME280;23035;50.032;21.978;2022-10-17T03:38:21;66710.84;;;14.63;100.00
37132;BME280;23035;50.032;21.978;2022-10-17T03:43:26;66693.09;;;14.47;100.00
37132;BME280;23035;50.032;21.978;2022-10-17T03:48:30;66685.00;;;14.39;100.00
37132;BME280;23035;50.032;21.978;2022-10-17T03:53:37;66628.47;;;13.83;100.00
37132;BME280;23035;50.032;21.978;2022-10-17T03:58:42;66683.88;;;14.35;100.00
37132;BME280;23035;50.032;21.978;2022-10-17T04:03:49;66639.69;;;13.91;100.00
37132;BME280;23035;50.032;21.978;2022-10-17T04:08:55;66604.19;;;13.58;100.00
37132;BME280;23035;50.032;21.978;2022-10-17T04:14:06;66678.66;;;14.35;100.00
37132;BME280;23035;50.032;21.978;2022-10-17T04:19:12;66698.47;;;14.52;100.00
37132;BME280;23035;50.032;21.978;2022-10-17T04:24:21;66691.94;;;14.43;100.00
37132;BME280;23035;50.032;21.978;2022-10-17T04:29:52;66719.00;;;14.74;100.00
37132;BME280;23035;50.032;21.978;2022-10-17T04:34:59;66646.28;;;14.02;100.00
37132;BME280;23035;50.032;21.978;2022-10-17T04:40:06;66606.50;;;13.65;100.00
37132;BME280;23035;50.032;21.978;2022-10-17T04:45:10;66595.75;;;13.55;100.00
37132;BME280;23035;50.032;21.978;2022-10-17T04:50:15;66677.88;;;14.27;100.00
37132;BME280;23035;50.032;21.978;2022-10-17T04:55:39;66659.19;;;14.15;100.00
37132;BME280;23035;50.032;21.978;2022-10-17T05:00:43;66640.28;;;13.94;100.00
37132;BME280;23035;50.032;21.978;2022-10-17T05:05:54;66670.47;;;14.25;100.00
37132;BME280;23035;50.032;21.978;2022-10-17T05:10:59;66589.31;;;13.48;100.00
37132;BME280;23035;50.032;21.978;2022-10-17T05:16:06;66596.81;;;13.56;100.00
37132;BME280;23035;50.032;21.978;2022-10-17T05:21:10;66650.38;;;13.99;100.00
37132;BME280;23035;50.032;21.978;2022-10-17T05:26:15;66722.16;;;14.74;100.00
37132;BME280;23035;50.032;21.978;2022-10-17T05:31:20;66668.88;;;14.24;100.00
37132;BME280;23035;50.032;21.978;2022-10-17T05:36:24;66681.69;;;14.33;100.00
37132;BME280;23035;50.032;21.978;2022-10-17T05:41:30;66634.53;;;13.94;100.00
37132;BME280;23035;50.032;21.978;2022-10-17T05:46:34;66766.19;;;15.13;98.35
37132;BME280;23035;50.032;21.978;2022-10-17T05:51:38;66798.03;;;15.46;96.42
37132;BME280;23035;50.032;21.978;2022-10-17T05:56:44;66847.13;;;15.95;92.73
37132;BME280;23035;50.032;21.978;2022-10-17T06:01:48;66921.94;;;16.63;86.80
37132;BME280;23035;50.032;21.978;2022-10-17T06:06:52;66802.75;;;15.45;95.13
37132;BME280;23035;50.032;21.978;2022-10-17T06:11:59;66834.13;;;15.80;94.23
37132;BME280;23035;50.032;21.978;2022-10-17T06:17:04;66812.97;;;15.55;96.75
37132;BME280;23035;50.032;21.978;2022-10-17T06:22:08;66862.66;;;16.07;92.81
37132;BME280;23035;50.032;21.978;2022-10-17T06:27:13;66857.75;;;16.00;92.55
37132;BME280;23035;50.032;21.978;2022-10-17T06:32:21;66948.28;;;16.85;86.99
37132;BME280;23035;50.032;21.978;2022-10-17T06:37:25;66919.75;;;16.61;88.16
37132;BME280;23035;50.032;21.978;2022-10-17T06:42:41;66965.06;;;17.04;85.51
37132;BME280;23035;50.032;21.978;2022-10-17T06:48:00;66920.38;;;16.64;88.57
37132;BME280;23035;50.032;21.978;2022-10-17T06:53:16;67090.72;;;18.22;80.47
37132;BME280;23035;50.032;21.978;2022-10-17T06:58:27;67059.91;;;17.91;80.97
37132;BME280;23035;50.032;21.978;2022-10-17T07:03:42;66998.00;;;17.37;84.41
37132;BME280;23035;50.032;21.978;2022-10-17T07:08:46;67023.25;;;17.59;81.75
37132;BME280;23035;50.032;21.978;2022-10-17T07:13:54;67045.94;;;17.80;81.40
37132;BME280;23035;50.032;21.978;2022-10-17T07:18:58;67135.50;;;18.65;75.47
37132;BME280;23035;50.032;21.978;2022-10-17T07:24:08;67127.91;;;18.57;76.50
37132;BME280;23035;50.032;21.978;2022-10-17T07:29:14;67047.56;;;17.82;80.18
37132;BME280;23035;50.032;21.978;2022-10-17T07:34:36;67115.50;;;18.46;77.05
37132;BME280;23035;50.032;21.978;2022-10-17T07:39:41;67081.47;;;18.11;77.53
37132;BME280;23035;50.032;21.978;2022-10-17T07:44:46;67080.94;;;18.11;77.89
37132;BME280;23035;50.032;21.978;2022-10-17T07:49:50;67080.47;;;18.13;79.28
37132;BME280;23035;50.032;21.978;2022-10-17T07:54:54;67091.72;;;18.21;77.86
37132;BME280;23035;50.032;21.978;2022-10-17T07:59:59;67093.41;;;18.25;78.77
37132;BME280;23035;50.032;21.978;2022-10-17T08:05:13;67155.53;;;18.86;75.08
37132;BME280;23035;50.032;21.978;2022-10-17T08:10:17;67115.50;;;18.46;77.69
37132;BME280;23035;50.032;21.978;2022-10-17T08:15:23;67226.19;;;19.50;73.82
37132;BME280;23035;50.032;21.978;2022-10-17T08:20:33;67266.63;;;19.86;71.79
37132;BME280;23035;50.032;21.978;2022-10-17T08:25:37;67220.22;;;19.44;73.73
37132;BME280;23035;50.032;21.978;2022-10-17T08:30:42;67250.97;;;19.71;73.16
37132;BME280;23035;50.032;21.978;2022-10-17T08:35:46;67294.16;;;20.12;72.10
37132;BME280;23035;50.032;21.978;2022-10-17T08:40:49;67305.09;;;20.27;71.45
37132;BME280;23035;50.032;21.978;2022-10-17T08:45:56;67410.31;;;21.18;66.73
37132;BME280;23035;50.032;21.978;2022-10-17T08:51:04;67432.53;;;21.42;65.22
37132;BME280;23035;50.032;21.978;2022-10-17T08:56:13;67379.00;;;20.91;69.05
37132;BME280;23035;50.032;21.978;2022-10-17T10:07:27;67520.22;;;22.27;62.54
37132;BME280;23035;50.032;21.978;2022-10-17T10:12:37;67565.66;;;22.70;59.89
37132;BME280;23035;50.032;21.978;2022-10-17T10:17:59;67576.50;;;22.80;60.26
37132;BME280;23035;50.032;21.978;2022-10-17T10:23:13;67550.03;;;22.57;58.74
37132;BME280;23035;50.032;21.978;2022-10-17T10:28:33;67514.81;;;22.22;60.69
37132;BME280;23035;50.032;21.978;2022-10-17T10:33:47;67581.94;;;22.85;57.82
37132;BME280;23035;50.032;21.978;2022-10-17T10:39:21;67574.34;;;22.78;59.33
37132;BME280;23035;50.032;21.978;2022-10-17T10:44:39;67486.06;;;21.92;59.77
37132;BME280;23035;50.032;21.978;2022-10-17T10:49:46;67452.63;;;21.63;62.29
37132;BME280;23035;50.032;21.978;2022-10-17T10:54:55;67557.97;;;22.57;59.80
37132;BME280;23035;50.032;21.978;2022-10-17T11:00:04;67578.66;;;22.82;58.28
37132;BME280;23035;50.032;21.978;2022-10-17T11:05:12;67611.63;;;23.10;58.91
37132;BME280;23035;50.032;21.978;2022-10-17T11:10:24;67600.88;;;23.03;57.04
37132;BME280;23035;50.032;21.978;2022-10-17T11:15:33;67545.66;;;22.51;58.43
37132;BME280;23035;50.032;21.978;2022-10-17T11:20:42;67526.72;;;22.33;60.46
37132;BME280;23035;50.032;21.978;2022-10-17T11:31:00;67513.19;;;22.20;60.46
37132;BME280;23035;50.032;21.978;2022-10-17T11:36:11;67581.78;;;22.80;57.86
37132;BME280;23035;50.032;21.978;2022-10-17T11:41:17;67629.00;;;23.29;56.47
37132;BME280;23035;50.032;21.978;2022-10-17T11:46:24;67651.69;;;23.48;55.26
37132;BME280;23035;50.032;21.978;2022-10-17T11:51:28;67803.44;;;24.93;51.44
37132;BME280;23035;50.032;21.978;2022-10-17T11:57:02;67927.59;;;26.10;48.96
37132;BME280;23035;50.032;21.978;2022-10-17T12:02:15;68004.09;;;26.81;46.63
37132;BME280;23035;50.032;21.978;2022-10-17T12:07:24;68149.53;;;28.15;42.84
37132;BME280;23035;50.032;21.978;2022-10-17T12:12:31;68150.63;;;28.16;42.45
37132;BME280;23035;50.032;21.978;2022-10-17T12:17:37;68128.41;;;27.98;42.46
37132;BME280;23035;50.032;21.978;2022-10-17T12:22:45;68042.66;;;27.18;43.99
37132;BME280;23035;50.032;21.978;2022-10-17T12:27:49;68061.09;;;27.35;44.57
37132;BME280;23035;50.032;21.978;2022-10-17T12:32:56;68172.94;;;28.40;42.50
37132;BME280;23035;50.032;21.978;2022-10-17T12:38:18;68137.66;;;28.07;41.99
37132;BME280;23035;50.032;21.978;2022-10-17T12:43:36;68115.38;;;27.86;42.92
37132;BME280;23035;50.032;21.978;2022-10-17T12:49:00;68188.72;;;28.54;41.99
37132;BME280;23035;50.032;21.978;2022-10-17T12:54:13;68202.81;;;28.68;40.48
37132;BME280;23035;50.032;21.978;2022-10-17T12:59:19;68172.94;;;28.40;41.37
37132;BME280;23035;50.032;21.978;2022-10-17T13:04:25;68150.63;;;28.16;41.19
37132;BME280;23035;50.032;21.978;2022-10-17T13:09:31;68173.56;;;28.43;41.02
37132;BME280;23035;50.032;21.978;2022-10-17T13:14:51;68121.88;;;27.92;42.01
37132;BME280;23035;50.032;21.978;2022-10-17T13:19:59;68092.03;;;27.64;43.71
37132;BME280;23035;50.032;21.978;2022-10-17T13:25:07;68157.69;;;28.23;41.46
37132;BME280;23035;50.032;21.978;2022-10-17T13:30:22;68112.63;;;27.81;41.85
37132;BME280;23035;50.032;21.978;2022-10-17T13:35:35;68024.28;;;27.05;43.95
37132;BME280;23035;50.032;21.978;2022-10-17T13:41:00;67969.94;;;26.49;44.90
37132;BME280;23035;50.032;21.978;2022-10-17T13:46:27;67968.94;;;26.53;45.65
37132;BME280;23035;50.032;21.978;2022-10-17T13:51:49;68019.78;;;26.94;44.17
37132;BME280;23035;50.032;21.978;2022-10-17T13:57:18;67954.25;;;26.37;45.31
37132;BME280;23035;50.032;21.978;2022-10-17T14:02:24;67949.78;;;26.28;45.77
37132;BME280;23035;50.032;21.978;2022-10-17T14:07:36;67943.88;;;26.25;45.71
37132;BME280;23035;50.032;21.978;2022-10-17T14:13:21;67974.38;;;26.58;45.22
37132;BME280;23035;50.032;21.978;2022-10-17T14:18:31;67958.00;;;26.38;45.78
37132;BME280;23035;50.032;21.978;2022-10-17T14:24:10;68000.19;;;26.73;44.75
37132;BME280;23035;50.032;21.978;2022-10-17T14:29:19;67927.06;;;26.09;45.99
37132;BME280;23035;50.032;21.978;2022-10-17T14:34:27;67965.50;;;26.40;45.71
37132;BME280;23035;50.032;21.978;2022-10-17T14:39:47;67953.16;;;26.36;45.94
37132;BME280;23035;50.032;21.978;2022-10-17T14:44:57;67927.59;;;26.10;46.97
37132;BME280;23035;50.032;21.978;2022-10-17T14:50:19;67904.28;;;25.88;47.23
37132;BME280;23035;50.032;21.978;2022-10-17T14:55:26;67881.50;;;25.66;48.32
37132;BME280;23035;50.032;21.978;2022-10-17T15:00:36;67847.47;;;25.39;49.10
37132;BME280;23035;50.032;21.978;2022-10-17T15:05:49;67823.50;;;25.12;50.29
37132;BME280;23035;50.032;21.978;2022-10-17T15:11:10;67758.47;;;24.51;52.37
37132;BME280;23035;50.032;21.978;2022-10-17T15:16:29;67729.19;;;24.23;53.22
37132;BME280;23035;50.032;21.978;2022-10-17T15:21:39;67686.97;;;23.84;55.06
37132;BME280;23035;50.032;21.978;2022-10-17T15:26:51;67594.31;;;22.94;58.40
37132;BME280;23035;50.032;21.978;2022-10-17T15:31:59;67537.56;;;22.43;60.28
37132;BME280;23035;50.032;21.978;2022-10-17T15:37:05;67485.66;;;21.97;62.87
37132;BME280;23035;50.032;21.978;2022-10-17T15:42:18;67346.53;;;20.58;68.47
37132;BME280;23035;50.032;21.978;2022-10-17T15:47:23;67273.66;;;19.92;72.21
37132;BME280;23035;50.032;21.978;2022-10-17T15:52:28;67272.03;;;19.91;73.94
37132;BME280;23035;50.032;21.978;2022-10-17T15:57:35;67233.66;;;19.55;78.57
37132;BME280;23035;50.032;21.978;2022-10-17T16:02:40;67160.78;;;18.86;82.62
37132;BME280;23035;50.032;21.978;2022-10-17T16:07:48;67181.31;;;19.05;81.62
37132;BME280;23035;50.032;21.978;2022-10-17T16:12:56;67170.50;;;18.95;82.82
37132;BME280;23035;50.032;21.978;2022-10-17T16:18:00;67199.06;;;19.19;81.56
37132;BME280;23035;50.032;21.978;2022-10-17T16:23:10;67193.72;;;19.17;80.64
37132;BME280;23035;50.032;21.978;2022-10-17T16:28:16;67165.19;;;18.92;82.66
37132;BME280;23035;50.032;21.978;2022-10-17T16:33:20;67199.59;;;19.20;81.93
37132;BME280;23035;50.032;21.978;2022-10-17T16:38:24;67152.28;;;18.83;83.82
37132;BME280;23035;50.032;21.978;2022-10-17T16:43:42;67138.28;;;18.70;85.67
37132;BME280;23035;50.032;21.978;2022-10-17T16:48:46;67115.94;;;18.41;85.65
37132;BME280;23035;50.032;21.978;2022-10-17T16:53:51;67078.31;;;18.11;88.44
37132;BME280;23035;50.032;21.978;2022-10-17T16:58:57;67103.66;;;18.34;86.22
37132;BME280;23035;50.032;21.978;2022-10-17T17:04:08;67127.91;;;18.57;84.28
37132;BME280;23035;50.032;21.978;2022-10-17T17:09:15;67105.25;;;18.36;84.02
37132;BME280;23035;50.032;21.978;2022-10-17T17:14:23;67048.56;;;17.80;88.60
37132;BME280;23035;50.032;21.978;2022-10-17T17:19:29;67078.75;;;18.09;86.26
37132;BME280;23035;50.032;21.978;2022-10-17T17:24:33;67063.66;;;17.94;86.76
37132;BME280;23035;50.032;21.978;2022-10-17T17:29:40;67089.63;;;18.21;85.39
37132;BME280;23035;50.032;21.978;2022-10-17T17:34:46;67020.03;;;17.56;89.80
37132;BME280;23035;50.032;21.978;2022-10-17T17:39:53;67029.75;;;17.65;89.46
37132;BME280;23035;50.032;21.978;2022-10-17T17:44:58;67043.78;;;17.78;88.22
37132;BME280;23035;50.032;21.978;2022-10-17T17:50:05;67040.00;;;17.74;89.04
37132;BME280;23035;50.032;21.978;2022-10-17T17:55:10;67014.97;;;17.43;90.98
37132;BME280;23035;50.032;21.978;2022-10-17T18:00:18;67024.34;;;17.60;88.99
37132;BME280;23035;50.032;21.978;2022-10-17T18:05:25;67029.75;;;17.65;89.31
37132;BME280;23035;50.032;21.978;2022-10-17T18:10:34;66993.47;;;17.26;92.26
37132;BME280;23035;50.032;21.978;2022-10-17T18:15:40;67010.34;;;17.46;90.15
37132;BME280;23035;50.032;21.978;2022-10-17T18:20:47;67047.03;;;17.81;88.23
37132;BME280;23035;50.032;21.978;2022-10-17T18:25:56;67045.94;;;17.80;87.49
37132;BME280;23035;50.032;21.978;2022-10-17T18:31:04;66993.53;;;17.28;91.01
37132;BME280;23035;50.032;21.978;2022-10-17T18:36:13;66993.63;;;17.31;91.61
37132;BME280;23035;50.032;21.978;2022-10-17T18:41:22;67020.03;;;17.56;89.70
37132;BME280;23035;50.032;21.978;2022-10-17T18:46:34;67018.41;;;17.54;89.83
37132;BME280;23035;50.032;21.978;2022-10-17T18:51:57;67024.22;;;17.55;88.74
37132;BME280;23035;50.032;21.978;2022-10-17T18:57:02;66959.59;;;16.96;92.61
37132;BME280;23035;50.032;21.978;2022-10-17T19:02:08;66940.50;;;16.71;93.60
37132;BME280;23035;50.032;21.978;2022-10-17T19:07:14;66915.94;;;16.55;95.20
37132;BME280;23035;50.032;21.978;2022-10-17T19:12:21;66887.38;;;16.28;98.44
37132;BME280;23035;50.032;21.978;2022-10-17T19:17:28;66899.84;;;16.42;96.93
37132;BME280;23035;50.032;21.978;2022-10-17T19:22:35;66918.09;;;16.57;95.39
37132;BME280;23035;50.032;21.978;2022-10-17T19:27:44;66882.06;;;16.25;98.03
37132;BME280;23035;50.032;21.978;2022-10-17T19:32:49;66889.00;;;16.29;98.54
37132;BME280;23035;50.032;21.978;2022-10-17T19:37:53;66868.53;;;16.10;100.00
37132;BME280;23035;50.032;21.978;2022-10-17T19:42:56;66888.06;;;16.33;97.26
37132;BME280;23035;50.032;21.978;2022-10-17T19:48:14;66869.16;;;16.13;98.81
37132;BME280;23035;50.032;21.978;2022-10-17T19:53:18;66859.44;;;16.04;99.21
37132;BME280;23035;50.032;21.978;2022-10-17T19:58:22;66891.75;;;16.34;97.03
37132;BME280;23035;50.032;21.978;2022-10-17T20:03:29;66884.06;;;16.22;98.33
37132;BME280;23035;50.032;21.978;2022-10-17T20:08:32;66898.63;;;16.36;95.31
37132;BME280;23035;50.032;21.978;2022-10-17T20:13:37;66899.75;;;16.40;95.63
37132;BME280;23035;50.032;21.978;2022-10-17T20:18:43;66933.66;;;16.69;93.72
37132;BME280;23035;50.032;21.978;2022-10-17T20:23:46;66955.84;;;16.92;92.28
37132;BME280;23035;50.032;21.978;2022-10-17T20:28:51;66886.78;;;16.25;95.96
37132;BME280;23035;50.032;21.978;2022-10-17T20:33:57;66892.22;;;16.32;96.43
37132;BME280;23035;50.032;21.978;2022-10-17T20:39:01;66882.53;;;16.23;97.60
37132;BME280;23035;50.032;21.978;2022-10-17T20:44:05;66809.41;;;15.59;100.00
37132;BME280;23035;50.032;21.978;2022-10-17T20:49:12;66832.97;;;15.76;100.00
37132;BME280;23035;50.032;21.978;2022-10-17T20:54:16;66891.59;;;16.29;96.40
37132;BME280;23035;50.032;21.978;2022-10-17T20:59:20;66790.97;;;15.37;100.00
37132;BME280;23035;50.032;21.978;2022-10-17T21:04:25;66880.84;;;16.19;97.24
37132;BME280;23035;50.032;21.978;2022-10-17T21:09:48;66876.13;;;16.20;96.40
37132;BME280;23035;50.032;21.978;2022-10-17T21:14:52;66832.97;;;15.76;100.00
37132;BME280;23035;50.032;21.978;2022-10-17T21:19:57;66781.88;;;15.31;100.00
37132;BME280;23035;50.032;21.978;2022-10-17T21:25:00;66829.13;;;15.70;99.53
37132;BME280;23035;50.032;21.978;2022-10-17T21:30:05;66820.50;;;15.62;100.00
37132;BME280;23035;50.032;21.978;2022-10-17T21:35:15;66820.59;;;15.65;100.00
37132;BME280;23035;50.032;21.978;2022-10-17T21:40:19;66845.91;;;15.89;98.68
37132;BME280;23035;50.032;21.978;2022-10-17T21:45:23;66909.00;;;16.51;93.78
37132;BME280;23035;50.032;21.978;2022-10-17T21:50:28;66835.66;;;15.79;96.78
37132;BME280;23035;50.032;21.978;2022-10-17T21:55:34;66834.75;;;15.83;99.43
37132;BME280;23035;50.032;21.978;2022-10-17T22:00:38;66826.59;;;15.73;96.88
37132;BME280;23035;50.032;21.978;2022-10-17T22:05:44;66835.13;;;15.78;98.93
37132;BME280;23035;50.032;21.978;2022-10-17T22:10:48;66734.38;;;14.81;100.00
37132;BME280;23035;50.032;21.978;2022-10-17T22:30:49;66734.53;;;14.86;100.00
37132;BME280;23035;50.032;21.978;2022-10-17T22:35:56;66767.81;;;15.15;100.00
37132;BME280;23035;50.032;21.978;2022-10-17T22:40:59;66712.84;;;14.60;100.00
37132;BME280;23035;50.032;21.978;2022-10-17T22:46:05;66773.13;;;15.17;100.00
37132;BME280;23035;50.032;21.978;2022-10-17T22:51:10;66711.25;;;14.59;100.00
37132;BME280;23035;50.032;21.978;2022-10-17T22:56:15;66804.41;;;15.49;100.00
37132;BME280;23035;50.032;21.978;2022-10-17T23:01:21;66778.19;;;15.30;100.00
37132;BME280;23035;50.032;21.978;2022-10-17T23:06:26;66794.25;;;15.42;100.00
37132;BME280;23035;50.032;21.978;2022-10-17T23:11:31;66840.06;;;15.86;96.08
37132;BME280;23035;50.032;21.978;2022-10-17T23:16:36;66754.91;;;15.03;100.00
37132;BME280;23035;50.032;21.978;2022-10-17T23:21:40;66756.50;;;15.04;100.00
37132;BME280;23035;50.032;21.978;2022-10-17T23:26:44;66718.84;;;14.69;100.00
37132;BME280;23035;50.032;21.978;2022-10-17T23:31:51;66674.78;;;14.29;100.00
37132;BME280;23035;50.032;21.978;2022-10-17T23:36:56;66775.28;;;15.19;100.00
37132;BME280;23035;50.032;21.978;2022-10-17T23:41:59;66763.59;;;15.13;100.00
37132;BME280;23035;50.032;21.978;2022-10-17T23:47:05;66711.31;;;14.61;100.00
37132;BME280;23035;50.032;21.978;2022-10-17T23:52:13;66784.44;;;15.28;100.00
37132;BME280;23035;50.032;21.978;2022-10-17T23:57:19;66823.75;;;15.65;98.32
